Time;durP1;ratioP1;P1;durP2;ratioP2;P2;SDS_P1;SDS_P2;PMS_P1;PMS_P2;Temp;Humidity;BMP_temperature;BMP_pressure;BME280_temperature;BME280_humidity;BME280_pressure;Samples;Min_cycle;Max_cycle;Signal;HPM_P1;HPM_P2
2021/05/25 00:02:17;;;;;;;6.53;2.22;;;;;;;16.11;100.00;100930.47;5032860;28;20033;-75
2021/05/25 00:04:42;;;;;;;8.20;2.00;;;;;;;15.97;100.00;100928.31;5032674;28;20381;-75
2021/05/25 00:07:08;;;;;;;5.43;2.10;;;;;;;15.54;100.00;100882.06;5032255;28;20030;-75
2021/05/25 00:09:34;;;;;;;5.97;1.88;;;;;;;15.41;100.00;100865.69;5032430;28;20179;-76
2021/05/25 00:12:00;;;;;;;8.35;2.00;;;;;;;15.57;100.00;100902.94;5032312;28;20032;-75
2021/05/25 00:14:26;;;;;;;4.72;2.35;;;;;;;15.35;100.00;100878.50;5032173;28;20105;-76
2021/05/25 00:16:52;;;;;;;4.82;2.17;;;;;;;15.40;100.00;100914.22;5032241;28;20029;-76
2021/05/25 00:19:19;;;;;;;8.07;2.10;;;;;;;15.14;100.00;100887.56;5032204;28;20091;-76
2021/05/25 00:21:45;;;;;;;6.95;1.90;;;;;;;15.39;100.00;100915.19;5032613;28;20030;-75
2021/05/25 00:24:10;;;;;;;6.40;2.67;;;;;;;15.30;100.00;100912.41;5036388;28;20225;-75
2021/05/25 00:26:36;;;;;;;5.05;2.30;;;;;;;15.29;100.00;100910.75;5034872;28;20132;-75
2021/05/25 00:29:02;;;;;;;5.82;2.10;;;;;;;15.21;100.00;100907.97;5036143;28;20396;-75
2021/05/25 00:31:28;;;;;;;5.15;2.42;;;;;;;15.20;100.00;100916.88;5036441;28;20029;-75
2021/05/25 00:33:53;;;;;;;4.80;2.10;;;;;;;15.20;100.00;100905.47;5036120;28;20036;-75
2021/05/25 00:36:21;;;;;;;5.28;2.05;;;;;;;15.22;100.00;100904.38;5036084;28;20033;-75
2021/05/25 00:38:46;;;;;;;5.65;2.42;;;;;;;14.80;100.00;100872.97;5035936;28;20124;-75
2021/05/25 00:41:12;;;;;;;3.30;2.17;;;;;;;14.71;100.00;100868.50;5035986;28;20461;-76
2021/05/25 00:43:37;;;;;;;3.60;2.00;;;;;;;14.94;100.00;100894.63;5035822;28;20021;-75
2021/05/25 00:46:03;;;;;;;3.35;1.92;;;;;;;15.16;100.00;100899.66;5035559;28;20069;-75
2021/05/25 00:48:28;;;;;;;4.95;2.03;;;;;;;15.08;100.00;100866.00;5036121;28;20030;-75
2021/05/25 00:50:55;;;;;;;4.28;1.98;;;;;;;15.35;100.00;100889.06;5035614;28;20033;-76
2021/05/25 00:53:21;;;;;;;4.25;2.70;;;;;;;15.44;100.00;100891.81;5035702;28;20112;-76
2021/05/25 00:55:47;;;;;;;4.28;2.10;;;;;;;15.41;100.00;100886.81;5035709;28;20128;-76
2021/05/25 00:58:13;;;;;;;5.75;2.53;;;;;;;15.24;100.00;100893.66;5035540;28;20088;-75
2021/05/25 01:00:44;;;;;;;5.47;2.40;;;;;;;15.05;100.00;100897.13;5034318;28;20026;-75
2021/05/25 01:03:12;;;;;;;7.63;2.28;;;;;;;14.91;100.00;100894.91;5035588;28;20473;-76
2021/05/25 01:05:37;;;;;;;5.75;2.28;;;;;;;14.65;100.00;100858.53;5034317;28;20033;-75
2021/05/25 01:08:04;;;;;;;3.67;2.22;;;;;;;14.83;100.00;100888.53;5033846;28;20117;-76
2021/05/25 01:10:36;;;;;;;4.72;2.63;;;;;;;14.70;100.00;100887.13;5034791;28;20090;-75
2021/05/25 01:13:13;;;;;;;4.88;2.45;;;;;;;14.86;100.00;100903.25;5033207;28;20116;-76
2021/05/25 01:15:39;;;;;;;5.28;2.25;;;;;;;14.72;100.00;100872.84;5035282;28;20059;-76
2021/05/25 01:18:06;;;;;;;3.72;2.10;;;;;;;14.79;100.00;100887.13;5035107;28;20033;-76
2021/05/25 01:20:34;;;;;;;3.88;2.08;;;;;;;14.69;100.00;100859.91;5035158;28;20033;-76
2021/05/25 01:23:00;;;;;;;6.25;2.90;;;;;;;14.60;100.00;100866.84;5035369;28;20083;-75
2021/05/25 01:25:27;;;;;;;5.15;2.75;;;;;;;14.71;100.00;100897.53;5035439;28;20053;-76
2021/05/25 01:27:57;;;;;;;4.63;2.50;;;;;;;14.70;100.00;100900.31;5034374;28;20065;-76
2021/05/25 01:30:30;;;;;;;5.88;2.90;;;;;;;14.59;100.00;100885.44;5035438;28;20401;-76
2021/05/25 01:32:56;;;;;;;5.80;2.83;;;;;;;14.68;100.00;100892.56;5034708;28;20025;-76
2021/05/25 01:35:24;;;;;;;6.90;2.58;;;;;;;14.62;100.00;100895.72;5034806;28;20029;-76
2021/05/25 01:37:50;;;;;;;5.15;2.45;;;;;;;14.41;100.00;100866.81;5033168;28;20484;-74
2021/05/25 01:40:17;;;;;;;5.10;2.75;;;;;;;14.49;100.00;100892.47;5032215;28;20079;-76
2021/05/25 01:42:42;;;;;;;4.65;2.53;;;;;;;14.39;100.00;100885.38;5032602;28;20041;-75
2021/05/25 01:45:15;;;;;;;5.28;2.60;;;;;;;14.31;100.00;100882.59;5032497;28;20025;-76
2021/05/25 01:47:41;;;;;;;5.20;2.60;;;;;;;14.34;100.00;100892.88;5031079;28;20369;-75
2021/05/25 01:50:14;;;;;;;5.15;2.75;;;;;;;14.38;100.00;100873.16;5032242;28;20032;-75
2021/05/25 01:53:04;;;;;;;4.65;2.83;;;;;;;14.55;100.00;100873.50;5031374;28;20025;-76
2021/05/25 01:55:40;;;;;;;6.53;3.35;;;;;;;14.54;100.00;100883.19;5033931;28;20048;-76
2021/05/25 01:58:11;;;;;;;5.75;2.90;;;;;;;14.59;100.00;100885.44;5033307;28;20151;-76
2021/05/25 02:00:39;;;;;;;6.15;2.70;;;;;;;14.51;100.00;100869.47;5034469;28;20032;-75
2021/05/25 02:03:05;;;;;;;4.97;3.30;;;;;;;14.30;100.00;100848.44;5033297;28;20025;-75
2021/05/25 02:05:32;;;;;;;6.78;3.03;;;;;;;14.34;100.00;100881.47;5034712;28;20052;-76
2021/05/25 02:07:58;;;;;;;6.43;3.05;;;;;;;14.30;100.00;100866.88;5034131;28;20032;-76
2021/05/25 02:10:30;;;;;;;5.50;3.22;;;;;;;14.21;100.00;100870.31;5034320;28;20108;-76
2021/05/25 02:13:04;;;;;;;5.88;2.90;;;;;;;13.97;100.00;100863.59;5033057;28;20032;-76
2021/05/25 02:15:29;;;;;;;6.70;3.25;;;;;;;13.93;100.00;100864.81;5034707;28;20056;-76
2021/05/25 02:17:56;;;;;;;6.20;2.90;;;;;;;13.74;100.00;100831.34;5034289;28;20520;-76
2021/05/25 02:20:22;;;;;;;6.72;3.38;;;;;;;13.83;100.00;100841.06;5034279;28;20080;-76
2021/05/25 02:22:47;;;;;;;5.47;3.30;;;;;;;13.82;100.00;100823.59;5034065;28;20041;-76
2021/05/25 02:25:13;;;;;;;5.40;3.40;;;;;;;13.97;100.00;100849.59;5033692;28;20049;-76
2021/05/25 02:27:39;;;;;;;5.57;2.75;;;;;;;14.03;100.00;100852.53;5033025;28;20022;-76
2021/05/25 02:30:05;;;;;;;4.93;2.88;;;;;;;14.02;100.00;100855.31;5033108;28;20031;-75
2021/05/25 02:32:31;;;;;;;4.70;3.10;;;;;;;13.78;100.00;100824.84;5033442;28;20029;-73
2021/05/25 02:34:57;;;;;;;4.00;2.88;;;;;;;14.02;100.00;100855.31;5033225;28;20033;-75
2021/05/25 02:37:22;;;;;;;5.15;3.05;;;;;;;14.01;100.00;100861.56;5032923;28;20033;-74
2021/05/25 02:39:48;;;;;;;4.95;2.88;;;;;;;13.98;100.00;100848.63;5032974;28;20075;-75
2021/05/25 02:42:14;;;;;;;4.47;2.90;;;;;;;14.06;100.00;100864.59;5031634;28;20021;-75
2021/05/25 02:44:39;;;;;;;3.95;2.88;;;;;;;13.92;100.00;100824.47;5032401;28;20017;-75
2021/05/25 02:47:05;;;;;;;7.05;2.83;;;;;;;14.06;100.00;100846.16;5033424;28;20503;-75
2021/05/25 02:49:31;;;;;;;5.30;3.25;;;;;;;14.12;100.00;100867.53;5033369;28;20052;-75
2021/05/25 02:51:56;;;;;;;8.27;3.25;;;;;;;13.93;100.00;100826.13;5033612;28;20025;-75
2021/05/25 02:54:22;;;;;;;6.30;3.50;;;;;;;14.11;100.00;100841.34;5032817;28;20116;-74
2021/05/25 02:56:47;;;;;;;7.97;3.40;;;;;;;14.32;100.00;100863.16;5032602;28;20503;-74
2021/05/25 02:59:13;;;;;;;4.40;2.88;;;;;;;14.40;100.00;100859.84;5032613;28;20401;-75
2021/05/25 03:01:38;;;;;;;7.00;5.15;;;;;;;14.00;100.00;100799.25;5032030;28;20029;-74
2021/05/25 03:04:03;;;;;;;4.65;3.10;;;;;;;14.34;100.00;100858.59;5033271;28;20041;-74
2021/05/25 03:06:29;;;;;;;6.75;4.10;;;;;;;14.56;100.00;100865.44;5032347;28;20029;-74
2021/05/25 03:08:54;;;;;;;10.25;4.32;;;;;;;14.50;100.00;100855.44;5032373;28;20488;-75
2021/05/25 03:11:20;;;;;;;5.38;3.60;;;;;;;14.32;100.00;100841.25;5032322;28;20489;-74
2021/05/25 03:13:46;;;;;;;7.35;3.72;;;;;;;14.47;100.00;100874.13;5032671;28;20048;-74
2021/05/25 03:16:14;;;;;;;9.73;3.53;;;;;;;14.45;100.00;100872.63;5031145;28;20115;-74
2021/05/25 03:18:40;;;;;;;6.00;3.10;;;;;;;14.37;100.00;100855.66;5032305;28;20104;-73
2021/05/25 03:21:05;;;;;;;6.38;3.42;;;;;;;14.39;100.00;100847.63;5033201;28;20128;-72
2021/05/25 03:23:31;;;;;;;5.07;3.15;;;;;;;14.52;100.00;100848.25;5031970;28;20504;-74
2021/05/25 03:25:59;;;;;;;5.47;3.67;;;;;;;14.57;100.00;100847.81;5032667;28;20443;-74
2021/05/25 03:28:25;;;;;;;5.28;3.30;;;;;;;14.59;100.00;100832.69;5033148;28;20063;-74
2021/05/25 03:30:50;;;;;;;7.75;3.30;;;;;;;14.96;100.00;100874.22;5032743;28;20083;-74
2021/05/25 03:33:16;;;;;;;8.40;3.40;;;;;;;14.68;100.00;100818.69;5032984;28;20026;-74
2021/05/25 03:35:42;;;;;;;5.75;3.45;;;;;;;15.06;100.00;100875.88;5031770;28;20472;-74
2021/05/25 03:38:07;;;;;;;4.40;3.05;;;;;;;15.21;100.00;100881.56;5032790;28;20467;-74
2021/05/25 03:40:33;;;;;;;4.68;3.00;;;;;;;15.32;100.00;100884.06;5032625;28;20030;-73
2021/05/25 03:42:58;;;;;;;4.03;2.80;;;;;;;15.20;100.00;100873.81;5031347;28;20060;-74
2021/05/25 03:45:25;;;;;;;5.97;2.72;;;;;;;15.31;100.00;100860.44;5032865;28;20040;-73
2021/05/25 03:47:51;;;;;;;3.80;2.38;;;;;;;15.41;100.00;100852.50;5032132;28;20040;-73
2021/05/25 03:50:18;;;;;;;5.18;2.63;;;;;;;15.67;100.00;100893.19;5032461;28;20443;-74
2021/05/25 03:52:47;;;;;;;6.15;2.47;;;;;;;15.58;100.00;100841.19;5032417;28;20030;-74
2021/05/25 04:00:45;;;;;;;8.73;2.90;;;;;;;15.80;100.00;100872.56;5032286;28;20125;-73
2021/05/25 04:03:10;;;;;;;12.70;3.40;;;;;;;15.68;100.00;100839.38;5032390;28;20396;-73
2021/05/25 04:05:36;;;;;;;5.15;2.38;;;;;;;16.03;100.00;100872.19;5031239;28;20527;-73
2021/05/25 04:08:01;;;;;;;4.18;2.40;;;;;;;16.06;100.00;100882.47;5032177;28;20033;-73
2021/05/25 04:10:27;;;;;;;5.30;2.67;;;;;;;15.91;100.00;100845.13;5032447;28;20037;-74
2021/05/25 04:12:53;;;;;;;4.72;2.25;;;;;;;16.17;100.00;100845.28;5032242;28;20038;-74
2021/05/25 04:15:19;;;;;;;6.32;2.30;;;;;;;16.09;100.00;100865.50;5032506;28;20485;-74
2021/05/25 04:17:44;;;;;;;6.32;2.40;;;;;;;16.34;100.00;100871.91;5032305;28;20053;-75
2021/05/25 04:20:11;;;;;;;8.88;2.95;;;;;;;16.45;100.00;100882.28;5032278;28;20026;-74
2021/05/25 04:22:37;;;;;;;12.88;3.03;;;;;;;16.26;100.00;100846.19;5032175;28;20105;-74
2021/05/25 04:25:04;;;;;;;3.50;2.28;;;;;;;16.37;100.00;100853.94;5031802;28;20537;-74
2021/05/25 04:27:30;;;;;;;4.75;2.55;;;;;;;16.64;100.00;100895.38;5030601;28;20405;-74
2021/05/25 04:29:55;;;;;;;5.50;2.65;;;;;;;16.95;100.00;100905.63;5031965;28;20029;-74
2021/05/25 04:32:21;;;;;;;5.90;2.25;;;;;;;17.14;100.00;100900.16;5031351;28;20021;-74
2021/05/25 04:34:46;;;;;;;4.55;2.30;;;;;;;17.31;100.00;100903.78;5032017;28;20026;-74
2021/05/25 04:37:12;;;;;;;6.63;2.40;;;;;;;17.58;100.00;100908.13;5030851;28;20037;-75
2021/05/25 04:39:37;;;;;;;5.05;2.83;;;;;;;17.66;100.00;100896.75;5031287;28;20378;-75
2021/05/25 04:42:03;;;;;;;6.65;2.30;;;;;;;17.89;100.00;100899.72;5031987;28;20437;-76
2021/05/25 04:44:28;;;;;;;5.60;2.95;;;;;;;17.90;100.00;100902.22;5031538;28;20030;-75
2021/05/25 04:46:54;;;;;;;4.18;2.65;;;;;;;18.00;100.00;100875.59;5031209;28;20037;-75
2021/05/25 04:49:19;;;;;;;7.28;2.67;;;;;;;18.44;100.00;100899.28;5031153;28;20040;-75
2021/05/25 04:51:45;;;;;;;5.60;2.70;;;;;;;18.38;100.00;100870.72;5032083;28;20163;-75
2021/05/25 04:54:11;;;;;;;5.93;2.70;;;;;;;18.60;100.00;100888.72;5031919;28;20032;-76
2021/05/25 04:56:36;;;;;;;7.03;3.47;;;;;;;18.37;100.00;100813.34;5032017;28;20034;-76
2021/05/25 04:59:02;;;;;;;7.03;2.70;;;;;;;18.88;100.00;100891.09;5031833;28;20025;-76
2021/05/25 05:01:29;;;;;;;7.90;2.83;;;;;;;18.71;100.00;100884.09;5031982;28;20025;-76
2021/05/25 05:03:55;;;;;;;7.00;2.75;;;;;;;18.80;100.00;100867.22;5031817;28;20026;-76
2021/05/25 05:06:20;;;;;;;6.43;2.40;;;;;;;19.38;100.00;100894.59;5031464;28;20107;-75
2021/05/25 05:08:46;;;;;;;5.22;2.30;;;;;;;19.52;100.00;100862.84;5033774;28;20029;-76
2021/05/25 05:11:11;;;;;;;4.65;2.05;;;;;;;20.06;100.00;100896.78;5035443;28;20459;-76
2021/05/25 05:13:37;;;;;;;4.72;2.10;;;;;;;20.14;100.00;100867.47;5035495;28;20025;-76
2021/05/25 05:16:03;;;;;;;7.88;2.38;;;;;;;20.32;100.00;100893.84;5035332;28;20025;-77
2021/05/25 05:18:28;;;;;;;5.53;2.08;;;;;;;20.45;100.00;100861.31;5035280;28;20021;-75
2021/05/25 05:20:54;;;;;;;49.00;6.50;;;;;;;20.75;100.00;100859.66;5035458;28;20025;-77
2021/05/25 05:23:19;;;;;;;5.60;2.25;;;;;;;21.13;100.00;100895.19;5034608;28;20022;-77
2021/05/25 05:25:45;;;;;;;3.75;1.70;;;;;;;21.33;100.00;100887.50;5033565;28;20116;-78
2021/05/25 05:28:11;;;;;;;6.20;1.95;;;;;;;21.47;100.00;100858.41;5029179;28;20124;-76
2021/05/25 05:30:37;;;;;;;4.05;1.60;;;;;;;21.34;100.00;100886.53;5022663;28;20565;-75
2021/05/25 05:33:04;;;;;;;3.40;1.45;;;;;;;21.74;100.00;100886.31;5024292;28;20029;-75
2021/05/25 05:35:29;;;;;;;4.80;1.58;;;;;;;21.77;100.00;100865.41;5018843;28;20025;-77
2021/05/25 05:37:55;;;;;;;6.30;2.15;;;;;;;21.70;100.00;100859.16;5028647;28;20125;-76
2021/05/25 05:40:20;;;;;;;5.20;1.60;;;;;;;22.15;100.00;100890.16;5029182;28;20138;-77
2021/05/25 05:42:46;;;;;;;2.90;1.70;;;;;;;22.27;100.00;100890.50;5022521;28;20041;-77
2021/05/25 05:45:12;;;;;;;4.40;1.50;;;;;;;22.38;100.00;100884.69;5030278;28;20488;-76
2021/05/25 05:47:37;;;;;;;7.45;1.65;;;;;;;22.40;100.00;100881.81;5032209;28;20037;-72
2021/05/25 05:50:10;;;;;;;4.07;1.48;;;;;;;22.53;100.00;100879.28;5024380;28;20409;-78
2021/05/25 05:52:37;;;;;;;3.83;1.50;;;;;;;22.74;100.00;100883.81;5026532;28;20183;-75
2021/05/25 05:55:03;;;;;;;5.00;2.20;;;;;;;22.77;100.00;100890.63;5024395;28;20033;-75
2021/05/25 05:57:29;;;;;;;2.30;1.60;;;;;;;22.69;100.00;100875.56;5031802;28;20025;-78
2021/05/25 05:59:54;;;;;;;5.80;2.17;;;;;;;22.71;100.00;100894.88;5030387;28;20060;-76
2021/05/25 06:02:20;;;;;;;4.82;1.60;;;;;;;22.38;100.00;100863.31;5025158;28;20108;-75
2021/05/25 06:04:45;;;;;;;6.85;1.73;;;;;;;22.83;100.00;100888.03;5022987;28;20025;-76
2021/05/25 06:07:11;;;;;;;10.95;2.17;;;;;;;23.15;100.00;100883.19;5027297;28;20123;-76
2021/05/25 06:09:37;;;;;;;4.15;1.90;;;;;;;23.40;100.00;100888.97;5029033;28;20108;-75
2021/05/25 06:12:03;;;;;;;5.30;1.30;;;;;;;23.69;100.00;100885.28;5025353;28;20104;-76
2021/05/25 06:14:29;;;;;;;5.05;1.65;;;;;;;23.54;100.00;100871.16;5027716;28;20017;-74
2021/05/25 06:16:54;;;;;;;3.33;1.52;;;;;;;23.78;100.00;100891.28;5024380;28;20055;-76
2021/05/25 06:19:20;;;;;;;5.40;1.65;;;;;;;24.08;100.00;100885.69;5025973;28;20072;-73
2021/05/25 06:21:45;;;;;;;3.47;1.60;;;;;;;24.36;100.00;100896.28;5026569;28;20038;-74
2021/05/25 06:24:13;;;;;;;4.82;1.50;;;;;;;24.37;100.00;100863.13;5029709;28;20056;-74
2021/05/25 06:26:39;;;;;;;4.65;1.60;;;;;;;24.35;100.00;100881.25;5027044;28;20042;-73
2021/05/25 06:29:04;;;;;;;2.95;1.52;;;;;;;24.63;100.00;100873.94;5028183;28;20040;-76
2021/05/25 06:31:30;;;;;;;3.40;1.40;;;;;;;24.72;100.00;100872.72;5027913;28;20057;-73
2021/05/25 06:33:55;;;;;;;5.07;1.42;;;;;;;24.72;100.00;100871.88;5023761;28;20037;-74
2021/05/25 06:36:21;;;;;;;7.53;1.48;;;;;;;24.90;100.00;100873.97;5028380;28;20076;-75
2021/05/25 06:38:46;;;;;;;4.35;1.38;;;;;;;24.95;100.00;100868.81;5023105;28;20032;-70
2021/05/25 06:41:12;;;;;;;6.40;1.63;;;;;;;25.12;100.00;100878.13;5023466;28;20111;-74
2021/05/25 06:43:37;;;;;;;4.85;1.27;;;;;;;25.14;100.00;100854.63;5024681;28;20029;-78
2021/05/25 06:46:04;;;;;;;5.95;1.52;;;;;;;24.95;100.00;100847.38;5026301;28;20049;-71
2021/05/25 06:48:29;;;;;;;2.85;1.20;;;;;;;25.09;100.00;100867.78;5029257;28;20091;-73
2021/05/25 06:50:55;;;;;;;3.97;1.52;;;;;;;25.40;100.00;100864.50;5026751;28;20034;-76
2021/05/25 06:53:20;;;;;;;4.97;1.33;;;;;;;25.47;85.78;100840.34;5025896;28;20032;-72
2021/05/25 06:55:46;;;;;;;3.53;1.25;;;;;;;25.67;81.10;100859.88;5021239;28;20037;-75
2021/05/25 06:58:11;;;;;;;6.30;2.05;;;;;;;25.78;79.12;100855.72;5022523;28;20030;-73
2021/05/25 07:00:36;;;;;;;2.40;1.20;;;;;;;25.97;76.90;100855.91;5027119;28;20172;-73
2021/05/25 07:03:02;;;;;;;7.15;1.70;;;;;;;26.01;67.87;100827.59;5026034;28;20121;-73
2021/05/25 07:05:28;;;;;;;5.20;1.50;;;;;;;26.08;63.04;100821.16;5026362;28;20026;-73
2021/05/25 07:07:53;;;;;;;3.85;1.25;;;;;;;26.33;61.72;100840.03;5026675;28;20040;-75
2021/05/25 07:10:19;;;;;;;7.35;1.63;;;;;;;26.37;60.53;100816.25;5026273;28;20520;-73
2021/05/25 07:12:44;;;;;;;7.28;1.80;;;;;;;26.59;63.47;100814.91;5028636;28;20496;-73
2021/05/25 07:15:11;;;;;;;4.03;1.30;;;;;;;26.98;60.18;100833.63;5024025;28;20523;-74
2021/05/25 07:17:36;;;;;;;4.60;1.48;;;;;;;27.00;57.81;100837.72;5025366;28;20044;-73
2021/05/25 07:20:03;;;;;;;6.35;1.50;;;;;;;26.69;55.03;100827.00;5028815;28;20033;-73
2021/05/25 07:22:28;;;;;;;4.18;1.10;;;;;;;26.68;54.35;100826.19;5018094;28;20036;-73
2021/05/25 07:24:54;;;;;;;4.50;1.73;;;;;;;26.85;55.39;100811.16;5024675;28;20041;-73
2021/05/25 07:27:20;;;;;;;8.65;1.55;;;;;;;26.65;54.66;100812.38;5026858;28;20082;-73
2021/05/25 07:29:46;;;;;;;4.13;1.40;;;;;;;26.16;54.72;100816.59;5027718;28;20048;-73
2021/05/25 07:32:11;;;;;;;3.85;1.40;;;;;;;25.97;55.92;100837.94;5017510;28;20029;-73
2021/05/25 07:34:37;;;;;;;5.93;1.70;;;;;;;26.12;59.98;100841.19;5026919;28;20048;-73
2021/05/25 07:37:02;;;;;;;2.83;1.35;;;;;;;26.55;54.18;100839.72;5027043;28;20030;-71
2021/05/25 07:39:28;;;;;;;4.43;1.52;;;;;;;26.90;53.53;100820.44;5021650;28;20541;-76
2021/05/25 07:41:54;;;;;;;7.45;1.48;;;;;;;27.36;52.65;100830.78;5028268;28;20034;-72
2021/05/25 07:44:20;;;;;;;4.25;1.35;;;;;;;27.38;51.18;100831.41;5025890;28;20044;-78
2021/05/25 07:46:45;;;;;;;6.18;1.83;;;;;;;27.49;53.30;100827.13;5029040;28;20021;-71
2021/05/25 07:49:11;;;;;;;5.03;1.38;;;;;;;27.67;50.12;100829.81;5025691;28;20025;-75
2021/05/25 07:51:36;;;;;;;11.02;2.20;;;;;;;27.68;50.51;100818.03;5017231;28;20026;-72
2021/05/25 07:54:02;;;;;;;5.20;1.40;;;;;;;27.28;49.07;100844.53;5025603;28;20033;-72
2021/05/25 07:56:28;;;;;;;9.95;1.58;;;;;;;27.19;50.25;100835.09;5027923;28;20041;-74
2021/05/25 07:58:54;;;;;;;2.78;1.60;;;;;;;27.70;48.54;100831.25;5031744;28;20045;-75
2021/05/25 08:01:21;;;;;;;3.20;1.55;;;;;;;27.52;47.99;100813.25;5030394;28;20087;-71
2021/05/25 08:03:46;;;;;;;3.95;1.50;;;;;;;27.94;48.32;100833.03;5028845;28;20060;-74
2021/05/25 08:06:12;;;;;;;4.20;1.77;;;;;;;27.68;47.49;100830.69;5029309;28;20018;-74
2021/05/25 08:08:38;;;;;;;3.08;1.38;;;;;;;28.20;47.95;100833.75;5029415;28;20021;-72
2021/05/25 08:11:04;;;;;;;4.75;1.38;;;;;;;27.99;47.93;100825.13;5029328;28;20037;-76
2021/05/25 08:13:29;;;;;;;5.00;1.30;;;;;;;27.99;47.25;100817.03;5029226;28;20021;-72
2021/05/25 08:15:55;;;;;;;4.43;1.35;;;;;;;28.39;45.29;100838.09;5029872;28;20033;-75
2021/05/25 08:18:46;;;;;;;3.65;1.38;;;;;;;28.74;44.15;100829.25;5032609;28;20025;-75
2021/05/25 08:21:12;;;;;;;2.63;1.55;;;;;;;28.20;43.83;100837.28;5032304;28;20032;-75
2021/05/25 08:23:38;;;;;;;2.72;1.40;;;;;;;27.98;44.61;100807.31;5031830;28;20026;-74
2021/05/25 08:26:04;;;;;;;6.60;1.85;;;;;;;28.18;44.50;100773.88;5031996;28;20029;-73
2021/05/25 08:28:30;;;;;;;5.50;1.38;;;;;;;28.77;44.67;100806.41;5032109;28;20040;-76
2021/05/25 08:30:55;;;;;;;4.68;1.50;;;;;;;28.04;45.63;100797.50;5031941;28;20029;-75
2021/05/25 08:33:21;;;;;;;4.72;1.60;;;;;;;28.37;45.23;100796.22;5032485;28;20036;-75
2021/05/25 08:35:48;;;;;;;3.80;1.70;;;;;;;27.58;44.65;100806.16;5032048;28;20542;-74
2021/05/25 08:38:15;;;;;;;5.35;1.52;;;;;;;27.96;46.48;100795.94;5032048;28;20044;-73
2021/05/25 08:40:42;;;;;;;4.85;1.50;;;;;;;28.36;44.34;100787.31;5031996;28;20017;-73
2021/05/25 08:43:08;;;;;;;4.40;1.48;;;;;;;28.51;43.17;100761.81;5033391;28;20028;-73
2021/05/25 08:45:34;;;;;;;4.65;1.60;;;;;;;29.00;46.13;100784.88;5035089;28;20439;-74
2021/05/25 08:48:00;;;;;;;5.95;1.58;;;;;;;29.05;43.90;100778.75;5035648;28;20025;-74
2021/05/25 08:50:29;;;;;;;4.47;1.27;;;;;;;29.23;43.53;100780.50;5035796;28;20036;-74
2021/05/25 08:52:59;;;;;;;9.03;2.07;;;;;;;29.64;44.89;100776.81;5035732;28;20044;-74
2021/05/25 08:55:25;;;;;;;4.60;1.55;;;;;;;29.35;45.57;100778.59;5035764;28;20087;-72
2021/05/25 08:57:50;;;;;;;7.88;1.80;;;;;;;29.03;44.75;100749.31;5035680;28;20025;-73
2021/05/25 09:00:16;;;;;;;5.53;1.80;;;;;;;28.92;44.43;100748.25;5035792;28;20378;-73
2021/05/25 09:02:42;;;;;;;2.38;1.50;;;;;;;28.33;43.42;100747.34;5035674;28;20108;-73
2021/05/25 09:05:15;;;;;;;5.00;1.80;;;;;;;28.79;43.47;100745.78;5035785;28;20142;-74
2021/05/25 09:07:46;;;;;;;4.20;1.50;;;;;;;29.12;43.27;100749.78;5035329;28;20504;-72
2021/05/25 09:10:23;;;;;;;7.07;1.58;;;;;;;29.35;43.90;100765.94;5035711;28;20455;-74
2021/05/25 09:12:52;;;;;;;3.72;1.50;;;;;;;29.07;40.21;100766.69;5035283;28;20045;-74
2021/05/25 09:15:31;;;;;;;2.78;1.55;;;;;;;29.04;40.54;100761.75;5035564;28;20098;-72
2021/05/25 09:18:06;;;;;;;5.10;1.37;;;;;;;29.14;41.57;100772.78;5035250;28;20041;-73
2021/05/25 09:20:41;;;;;;;4.75;1.60;;;;;;;29.33;44.05;100765.38;5035727;28;20264;-73
2021/05/25 09:23:07;;;;;;;4.60;1.58;;;;;;;29.65;39.71;100762.25;5035263;28;20029;-73
2021/05/25 09:25:34;;;;;;;4.80;1.38;;;;;;;28.82;38.21;100737.22;5035247;28;20056;-73
2021/05/25 09:28:02;;;;;;;3.28;1.35;;;;;;;29.38;38.07;100754.66;5034982;28;20104;-73
2021/05/25 09:30:32;;;;;;;5.05;1.30;;;;;;;29.72;38.28;100746.72;5035013;28;20043;-73
2021/05/25 09:33:09;;;;;;;2.33;1.13;;;;;;;29.98;39.20;100755.31;5035301;28;20025;-73
2021/05/25 09:35:38;;;;;;;4.03;1.10;;;;;;;29.93;37.27;100730.91;5035281;28;20037;-73
2021/05/25 09:38:08;;;;;;;3.15;1.20;;;;;;;30.11;37.16;100720.69;5034873;28;20451;-73
2021/05/25 09:40:34;;;;;;;4.10;1.40;;;;;;;30.12;38.07;100740.44;5035015;28;20030;-73
2021/05/25 09:43:23;;;;;;;3.30;1.42;;;;;;;28.67;39.17;100758.44;5035137;28;20047;-72
2021/05/25 09:46:04;;;;;;;2.93;1.63;;;;;;;28.35;39.49;100725.53;5035134;28;20030;-73
2021/05/25 09:48:33;;;;;;;4.70;1.50;;;;;;;29.08;39.34;100724.31;5034984;28;20041;-73
2021/05/25 09:51:00;;;;;;;3.83;1.30;;;;;;;29.67;38.11;100740.38;5034768;28;20021;-73
2021/05/25 09:53:31;;;;;;;4.18;1.60;;;;;;;29.60;38.88;100748.66;5034560;28;20042;-73
2021/05/25 09:56:01;;;;;;;4.82;1.63;;;;;;;29.66;39.17;100704.47;5034903;28;20030;-73
2021/05/25 09:58:33;;;;;;;3.28;1.50;;;;;;;29.56;37.95;100726.66;5034598;28;20033;-73
2021/05/25 10:01:08;;;;;;;11.15;2.03;;;;;;;29.93;38.87;100710.09;5034769;28;20044;-73
2021/05/25 10:03:45;;;;;;;4.85;1.25;;;;;;;29.58;37.86;100702.94;5034606;28;20114;-74
2021/05/25 10:06:12;;;;;;;2.72;1.40;;;;;;;29.58;38.13;100708.34;5034308;28;20064;-73
2021/05/25 10:08:39;;;;;;;7.60;1.40;;;;;;;29.38;38.51;100721.44;5034030;28;20069;-74
2021/05/25 10:11:06;;;;;;;5.80;1.33;;;;;;;29.25;39.14;100670.44;5034381;28;20108;-73
2021/05/25 10:13:32;;;;;;;3.95;1.50;;;;;;;29.16;40.02;100707.78;5034037;28;20459;-74
2021/05/25 10:15:58;;;;;;;3.10;1.30;;;;;;;28.83;38.58;100711.91;5034392;28;20104;-74
2021/05/25 10:19:15;;;;;;;2.88;1.52;;;;;;;28.81;38.52;100676.25;5034175;28;20025;-73
2021/05/25 10:21:14;;;;;;;;;;;;;;;28.28;39.32;100706.78;5034183;28;20455;-76
2021/05/25 10:23:42;;;;;;;6.85;1.48;;;;;;;28.12;41.28;100667.88;5034145;28;19913;-75
2021/05/25 10:26:11;;;;;;;3.85;2.13;;;;;;;28.32;41.01;100688.28;5034094;28;20029;-75
2021/05/25 10:28:40;;;;;;;6.85;5.18;;;;;;;28.24;40.63;100675.97;5033975;28;20032;-75
2021/05/25 10:31:25;;;;;;;5.40;1.67;;;;;;;28.23;39.71;100687.81;5033881;28;20032;-74
2021/05/25 10:34:15;;;;;;;2.33;1.48;;;;;;;28.46;40.36;100684.34;5033792;28;20295;-72
2021/05/25 10:36:53;;;;;;;4.68;1.63;;;;;;;28.33;39.08;100655.72;5033845;28;20052;-73
2021/05/25 10:39:28;;;;;;;4.57;1.52;;;;;;;28.17;39.67;100676.06;5033609;28;20032;-72
2021/05/25 10:42:19;;;;;;;2.80;1.60;;;;;;;28.56;40.33;100683.78;5034405;28;20088;-72
2021/05/25 10:44:55;;;;;;;2.08;1.40;;;;;;;28.46;41.21;100646.59;5033701;28;20025;-72
2021/05/25 10:47:33;;;;;;;3.47;1.65;;;;;;;28.68;40.16;100663.00;5033777;28;20032;-73
2021/05/25 10:50:25;;;;;;;3.10;1.20;;;;;;;29.07;40.93;100660.63;5032094;28;20099;-72
2021/05/25 10:52:53;;;;;;;2.72;1.23;;;;;;;29.62;39.76;100652.81;5032592;28;20115;-74
2021/05/25 10:55:32;;;;;;;3.28;1.48;;;;;;;29.28;39.80;100638.38;5033737;28;20033;-73
2021/05/25 10:57:59;;;;;;;4.07;1.75;;;;;;;29.28;39.26;100624.91;5033600;28;20036;-73
2021/05/25 11:00:45;;;;;;;3.40;1.77;;;;;;;29.19;40.18;100647.91;5032203;28;20452;-73
2021/05/25 11:03:10;;;;;;;5.68;1.80;;;;;;;28.45;40.45;100650.34;5033072;28;20029;-76
2021/05/25 11:05:37;;;;;;;3.15;1.60;;;;;;;28.22;41.10;100648.44;5033141;28;20052;-75
2021/05/25 11:08:08;;;;;;;5.05;1.73;;;;;;;28.33;41.57;100633.34;5032994;28;20403;-73
2021/05/25 11:10:41;;;;;;;2.92;1.63;;;;;;;28.99;42.96;100640.22;5033281;28;20036;-73
2021/05/25 11:13:20;;;;;;;6.38;1.50;;;;;;;29.44;40.80;100646.78;5033455;28;20568;-73
2021/05/25 11:16:12;;;;;;;6.00;1.52;;;;;;;29.75;39.52;100635.50;5032984;28;20461;-73
2021/05/25 11:27:14;;;;;;;4.28;1.90;;;;;;;29.86;41.47;100629.19;5032901;28;20068;-75
2021/05/25 11:30:06;;;;;;;3.17;1.70;;;;;;;30.28;39.08;100625.31;5032029;28;20095;-73
2021/05/25 11:32:46;;;;;;;6.15;1.95;;;;;;;30.53;39.85;100622.16;5032846;28;20026;-72
2021/05/25 11:35:18;;;;;;;4.32;1.52;;;;;;;30.06;38.27;100600.88;5031411;28;20033;-74
2021/05/25 11:37:46;;;;;;;2.25;1.50;;;;;;;29.45;38.03;100589.03;5031553;28;20030;-72